createdAt,value
2022-09-23T00:01:39.311Z,78.19
2022-09-23T00:04:28.639Z,78.28
2022-09-23T00:07:05.807Z,78.65
2022-09-23T00:09:44.889Z,78.72
2022-09-23T00:12:18.373Z,79.20
2022-09-23T00:15:17.715Z,79.18
2022-09-23T00:17:58.110Z,79.35
2022-09-23T00:20:50.705Z,79.47
2022-09-23T00:23:32.997Z,79.07
2022-09-23T00:26:24.959Z,79.09
2022-09-23T00:29:15.670Z,79.55
2022-09-23T00:31:54.281Z,79.48
2022-09-23T00:34:25.185Z,79.54
2022-09-23T00:36:56.973Z,79.71
2022-09-23T00:39:38.295Z,79.82
2022-09-23T00:42:13.276Z,80.07
2022-09-23T00:44:43.321Z,80.24
2022-09-23T00:47:39.047Z,80.27
2022-09-23T00:50:23.625Z,80.52
2022-09-23T00:53:04.372Z,80.42
2022-09-23T00:56:07.474Z,80.52
2022-09-23T00:58:45.382Z,80.79
2022-09-23T01:01:17.047Z,80.51
2022-09-23T01:03:48.462Z,80.57
2022-09-23T01:06:16.462Z,80.88
2022-09-23T01:08:51.893Z,80.62
2022-09-23T01:11:59.132Z,80.73
2022-09-23T01:14:45.770Z,81.11
2022-09-23T01:17:49.007Z,81.23
2022-09-23T01:20:38.760Z,80.97
2022-09-23T01:23:34.823Z,81.59
2022-09-23T01:26:31.536Z,81.51
2022-09-23T01:29:35.041Z,81.42
2022-09-23T01:32:36.661Z,81.48
2022-09-23T01:35:38.565Z,81.12
2022-09-23T01:38:51.663Z,81.10
2022-09-23T01:41:53.645Z,81.05
2022-09-23T01:44:46.557Z,81.45
2022-09-23T01:47:34.219Z,81.30
2022-09-23T01:50:46.868Z,81.76
2022-09-23T01:53:44.952Z,81.99
2022-09-23T01:56:26.200Z,81.67
2022-09-23T01:59:19.020Z,81.73
2022-09-23T02:02:09.965Z,82.18
2022-09-23T02:05:09.646Z,82.18
2022-09-23T02:08:12.695Z,81.90
2022-09-23T02:10:53.300Z,82.11
2022-09-23T02:13:40.694Z,82.32
2022-09-23T02:16:28.435Z,82.36
2022-09-23T02:19:05.703Z,82.45
2022-09-23T02:21:45.664Z,82.52
2022-09-23T02:24:22.673Z,82.61
2022-09-23T02:27:29.986Z,82.21
2022-09-23T02:30:30.335Z,82.28
2022-09-23T02:33:26.991Z,82.47
2022-09-23T02:36:32.472Z,82.39
2022-09-23T02:39:14.626Z,82.45
2022-09-23T02:42:02.585Z,82.22
2022-09-23T02:44:34.462Z,82.10
2022-09-23T02:47:03.411Z,82.24
2022-09-23T02:49:40.543Z,82.42
2022-09-23T02:52:28.640Z,82.38
2022-09-23T02:55:00.946Z,82.34
2022-09-23T02:57:34.885Z,82.26
2022-09-23T03:00:14.030Z,82.23
2022-09-23T03:03:25.083Z,82.09
2022-09-23T03:06:33.144Z,82.14
2022-09-23T03:09:25.453Z,82.27
2022-09-23T03:12:24.295Z,82.33
2022-09-23T03:15:25.090Z,82.49
2022-09-23T03:18:09.127Z,82.19
2022-09-23T03:21:35.563Z,82.39
2022-09-23T03:24:23.825Z,82.65
2022-09-23T03:27:00.611Z,82.40
2022-09-23T03:29:37.337Z,82.79
2022-09-23T03:32:29.351Z,83.14
2022-09-23T03:35:10.477Z,82.53
2022-09-23T03:38:00.790Z,83.10
2022-09-23T03:40:35.423Z,82.72
2022-09-23T03:43:11.949Z,82.89
2022-09-23T03:45:42.630Z,82.92
2022-09-23T03:48:12.126Z,83.01
2022-09-23T03:50:45.411Z,83.42
2022-09-23T03:53:39.779Z,83.11
2022-09-23T03:56:11.923Z,83.15
2022-09-23T03:58:40.118Z,82.99
2022-09-23T04:01:22.933Z,83.39
2022-09-23T04:03:56.459Z,83.26
2022-09-23T04:06:35.433Z,83.21
2022-09-23T04:09:35.253Z,83.05
2022-09-23T04:12:32.563Z,83.28
2022-09-23T04:15:11.411Z,83.06
2022-09-23T04:17:40.218Z,83.19
2022-09-23T04:20:20.836Z,83.35
2022-09-23T04:23:00.546Z,83.55
2022-09-23T04:25:34.504Z,83.48
2022-09-23T04:28:12.651Z,83.73
2022-09-23T04:30:51.504Z,83.80
2022-09-23T04:33:40.804Z,83.64
2022-09-23T04:36:10.668Z,83.64
2022-09-23T04:38:45.984Z,83.57
2022-09-23T04:41:32.430Z,83.59
2022-09-23T04:44:09.747Z,83.44
2022-09-23T04:46:39.325Z,83.12
2022-09-23T04:49:10.944Z,83.81
2022-09-23T04:51:43.767Z,83.51
2022-09-23T04:54:32.808Z,83.26
2022-09-23T04:57:21.270Z,83.40
2022-09-23T05:00:00.488Z,83.54
2022-09-23T05:02:34.007Z,83.35
2022-09-23T05:05:05.349Z,83.40
2022-09-23T05:07:36.695Z,83.20
2022-09-23T05:10:06.098Z,83.49
2022-09-23T05:12:42.427Z,83.31
2022-09-23T05:15:16.197Z,83.18
2022-09-23T05:17:49.642Z,83.22
2022-09-23T05:20:19.249Z,83.27
2022-09-23T05:22:50.079Z,83.48
2022-09-23T05:25:27.041Z,83.59
2022-09-23T05:27:55.279Z,83.17
2022-09-23T05:30:26.431Z,83.28
2022-09-23T05:33:20.481Z,83.40
2022-09-23T05:35:51.414Z,83.35
2022-09-23T05:38:32.788Z,83.36
2022-09-23T05:41:09.658Z,83.33
2022-09-23T05:43:41.522Z,83.07
2022-09-23T05:46:34.160Z,82.90
2022-09-23T05:49:05.759Z,83.09
2022-09-23T05:51:38.021Z,83.29
2022-09-23T05:54:10.834Z,83.03
2022-09-23T05:56:53.937Z,82.91
2022-09-23T05:59:22.043Z,83.03
2022-09-23T06:01:54.438Z,83.12
2022-09-23T06:04:24.621Z,82.62
2022-09-23T06:07:00.278Z,82.51
2022-09-23T06:09:39.591Z,82.58
2022-09-23T06:12:15.392Z,82.54
2022-09-23T06:14:44.167Z,82.67
2022-09-23T06:17:14.737Z,82.43
2022-09-23T06:19:42.801Z,82.16
2022-09-23T06:22:12.030Z,82.32
2022-09-23T06:24:40.395Z,82.37
2022-09-23T06:27:22.652Z,81.97
2022-09-23T06:29:52.551Z,81.74
2022-09-23T06:32:28.647Z,81.91
2022-09-23T06:34:59.156Z,81.93
2022-09-23T06:37:28.599Z,81.80
2022-09-23T06:39:58.617Z,81.72
2022-09-23T06:42:40.365Z,81.63
2022-09-23T06:45:16.065Z,81.21
2022-09-23T06:47:50.293Z,81.37
2022-09-23T06:50:21.482Z,81.23
2022-09-23T06:52:56.731Z,80.94
2022-09-23T06:55:28.016Z,80.93
2022-09-23T06:58:02.228Z,80.75
2022-09-23T07:00:30.835Z,80.66
2022-09-23T07:02:59.930Z,80.35
2022-09-23T07:05:28.155Z,80.37
2022-09-23T07:08:00.095Z,80.27
2022-09-23T07:10:29.163Z,80.23
2022-09-23T07:13:01.104Z,80.11
2022-09-23T07:15:29.175Z,79.65
2022-09-23T07:18:00.226Z,79.29
2022-09-23T07:20:28.081Z,79.47
2022-09-23T07:22:56.939Z,79.57
2022-09-23T07:25:25.236Z,79.55
2022-09-23T07:27:59.538Z,79.51
2022-09-23T07:30:27.437Z,79.28
2022-09-23T07:32:55.409Z,79.02
2022-09-23T07:35:23.354Z,79.16
2022-09-23T07:37:52.290Z,79.09
2022-09-23T07:40:20.702Z,78.78
2022-09-23T07:42:48.653Z,78.68
2022-09-23T07:45:22.971Z,78.58
2022-09-23T07:47:51.048Z,78.40
2022-09-23T07:50:19.180Z,78.21
2022-09-23T07:52:47.074Z,77.60
2022-09-23T07:55:18.889Z,77.45
2022-09-23T07:57:52.009Z,77.55
2022-09-23T08:00:21.591Z,77.32
2022-09-23T08:02:53.016Z,77.40
2022-09-23T08:05:23.334Z,76.62
2022-09-23T08:07:51.734Z,76.40
2022-09-23T08:10:20.819Z,76.52
2022-09-23T08:12:49.098Z,75.99
2022-09-23T08:15:17.718Z,75.92
2022-09-23T08:17:46.822Z,75.99
2022-09-23T08:20:34.919Z,75.69
2022-09-23T08:23:03.498Z,75.46
2022-09-23T08:25:34.671Z,75.11
2022-09-23T08:28:03.889Z,74.51
2022-09-23T08:30:32.077Z,74.26
2022-09-23T08:33:00.830Z,74.00
2022-09-23T08:35:29.538Z,74.15
2022-09-23T08:37:58.580Z,73.57
2022-09-23T08:40:28.867Z,72.99
2022-09-23T08:42:57.433Z,72.49
2022-09-23T08:45:27.885Z,72.35
2022-09-23T08:48:06.063Z,71.55
2022-09-23T08:50:43.898Z,71.30
2022-09-23T08:53:22.895Z,71.59
2022-09-23T08:55:53.987Z,71.25
2022-09-23T08:58:49.814Z,70.91
2022-09-23T09:01:49.127Z,70.66
2022-09-23T09:04:28.848Z,70.06
2022-09-23T09:10:22.829Z,69.19
2022-09-23T09:13:07.625Z,68.74
2022-09-23T09:15:46.879Z,68.33
2022-09-23T09:18:21.416Z,67.88
2022-09-23T09:21:14.815Z,67.84
2022-09-23T09:23:57.528Z,67.80
2022-09-23T09:26:33.008Z,66.98
2022-09-23T09:29:23.703Z,66.40
2022-09-23T09:31:54.165Z,65.93
2022-09-23T09:34:31.438Z,65.02
2022-09-23T09:37:09.172Z,65.19
2022-09-23T09:39:37.087Z,64.82
2022-09-23T09:42:13.952Z,64.10
2022-09-23T09:44:59.264Z,63.76
2022-09-23T09:47:30.825Z,62.98
2022-09-23T09:50:11.537Z,62.86
2022-09-23T09:52:42.709Z,62.19
2022-09-23T09:55:13.888Z,61.93
2022-09-23T09:57:46.251Z,59.23
2022-09-23T10:00:31.274Z,60.08
2022-09-23T10:03:30.461Z,60.27
2022-09-23T10:06:00.181Z,59.00
2022-09-23T10:08:35.020Z,58.94
2022-09-23T10:11:17.572Z,58.50
2022-09-23T10:14:07.468Z,58.32
2022-09-23T10:16:35.889Z,58.02
2022-09-23T10:19:11.443Z,58.30
2022-09-23T10:21:41.581Z,58.32
2022-09-23T10:24:24.303Z,57.86
2022-09-23T10:27:01.778Z,57.86
2022-09-23T10:29:33.648Z,57.10
2022-09-23T10:32:24.403Z,56.53
2022-09-23T10:34:54.281Z,56.83
2022-09-23T10:37:49.546Z,56.32
2022-09-23T10:40:42.372Z,54.43
2022-09-23T10:43:58.026Z,54.20
2022-09-23T10:46:38.908Z,53.68
2022-09-23T10:49:31.818Z,52.91
2022-09-23T10:52:28.628Z,53.00
2022-09-23T10:55:11.613Z,52.68
2022-09-23T10:58:08.271Z,52.44
2022-09-23T11:00:46.957Z,52.34
2022-09-23T11:03:27.481Z,52.19
2022-09-23T11:06:07.367Z,51.99
2022-09-23T11:09:09.934Z,51.47
2022-09-23T11:12:10.078Z,51.17
2022-09-23T11:15:07.995Z,50.74
2022-09-23T11:17:51.611Z,49.89
2022-09-23T11:20:32.855Z,49.87
2022-09-23T11:23:34.995Z,48.34
2022-09-23T11:26:17.572Z,48.03
2022-09-23T11:28:57.468Z,48.33
2022-09-23T11:31:28.523Z,48.56
2022-09-23T11:34:28.388Z,48.64
2022-09-23T11:37:14.345Z,47.41
2022-09-23T11:39:47.819Z,46.43
2022-09-23T11:42:24.043Z,45.79
2022-09-23T11:44:59.474Z,45.27
2022-09-23T11:47:42.563Z,44.26
2022-09-23T11:50:20.234Z,43.87
2022-09-23T11:52:53.165Z,43.19
2022-09-23T11:55:27.636Z,43.53
2022-09-23T11:58:02.337Z,43.78
2022-09-23T12:00:36.433Z,43.14
2022-09-23T12:03:23.355Z,42.99
2022-09-23T12:05:56.687Z,42.80
2022-09-23T12:08:33.092Z,42.64
2022-09-23T12:11:16.220Z,42.35
2022-09-23T12:13:49.840Z,42.21
2022-09-23T12:16:53.989Z,41.72
2022-09-23T12:19:40.521Z,41.46
2022-09-23T12:22:36.682Z,41.33
2022-09-23T12:25:26.812Z,41.75
2022-09-23T12:27:59.919Z,42.01
2022-09-23T12:30:32.529Z,42.23
2022-09-23T12:33:22.534Z,42.42
2022-09-23T12:36:07.032Z,42.82
2022-09-23T12:38:53.540Z,42.88
2022-09-23T12:41:29.077Z,42.92
2022-09-23T12:44:23.281Z,42.36
2022-09-23T12:47:21.631Z,41.96
2022-09-23T12:49:50.915Z,41.37
2022-09-23T12:52:19.767Z,40.75
2022-09-23T12:54:49.047Z,40.18
2022-09-23T12:57:35.018Z,40.04
2022-09-23T13:00:15.257Z,39.61
2022-09-23T13:03:12.821Z,39.04
2022-09-23T13:06:19.906Z,38.74
2022-09-23T13:08:49.981Z,38.25
2022-09-23T13:11:29.454Z,37.97
2022-09-23T13:14:01.352Z,37.54
2022-09-23T13:16:56.257Z,36.71
2022-09-23T13:19:27.196Z,36.12
2022-09-23T13:22:09.891Z,35.50
2022-09-23T13:24:43.528Z,34.65
2022-09-23T13:27:20.763Z,34.69
2022-09-23T13:29:59.641Z,34.94
2022-09-23T13:32:51.811Z,34.62
2022-09-23T13:35:36.739Z,34.40
2022-09-23T13:38:26.576Z,34.06
2022-09-23T13:41:11.311Z,34.15
2022-09-23T13:43:43.341Z,33.58
2022-09-23T13:46:17.377Z,33.11
2022-09-23T13:48:47.588Z,32.85
2022-09-23T13:51:22.956Z,32.44
2022-09-23T13:53:55.389Z,32.56
2022-09-23T13:56:25.469Z,32.41
2022-09-23T13:58:55.905Z,31.93
2022-09-23T14:01:35.264Z,31.75
2022-09-23T14:04:03.249Z,31.56
2022-09-23T14:06:31.597Z,30.66
2022-09-23T14:09:01.542Z,30.66
2022-09-23T14:11:35.209Z,30.80
2022-09-23T14:14:07.909Z,30.84
2022-09-23T14:16:39.621Z,30.15
2022-09-23T14:19:17.375Z,29.91
2022-09-23T14:21:49.349Z,29.84
2022-09-23T14:24:29.876Z,29.44
2022-09-23T14:27:06.564Z,29.45
2022-09-23T14:29:41.371Z,29.51
2022-09-23T14:32:17.453Z,29.96
2022-09-23T14:35:00.827Z,30.21
2022-09-23T14:37:58.396Z,30.00
2022-09-23T14:40:29.300Z,28.80
2022-09-23T14:43:22.756Z,29.34
2022-09-23T14:45:57.255Z,29.49
2022-09-23T14:48:29.964Z,29.14
2022-09-23T14:51:03.843Z,29.45
2022-09-23T14:53:43.359Z,29.67
2022-09-23T14:56:17.233Z,29.68
2022-09-23T14:58:56.951Z,29.97
2022-09-23T15:01:31.257Z,30.33
2022-09-23T15:04:11.878Z,29.79
2022-09-23T15:06:47.090Z,29.52
2022-09-23T15:09:23.795Z,29.81
2022-09-23T15:12:02.538Z,30.00
2022-09-23T15:14:38.828Z,29.79
2022-09-23T15:17:30.651Z,29.85
2022-09-23T15:20:02.750Z,30.15
2022-09-23T15:22:30.551Z,30.31
2022-09-23T15:25:20.596Z,30.39
2022-09-23T15:28:05.834Z,30.78
2022-09-23T15:30:36.067Z,30.83
2022-09-23T15:33:04.827Z,31.08
2022-09-23T15:35:32.909Z,31.27
2022-09-23T15:38:03.356Z,31.31
2022-09-23T15:40:33.803Z,31.37
2022-09-23T15:43:20.930Z,31.68
2022-09-23T15:45:53.145Z,31.88
2022-09-23T15:48:25.456Z,32.38
2022-09-23T15:50:54.390Z,33.17
2022-09-23T15:53:28.917Z,33.53
2022-09-23T15:55:58.629Z,34.03
2022-09-23T15:58:27.694Z,34.25
2022-09-23T16:00:57.499Z,34.64
2022-09-23T16:03:28.745Z,35.06
2022-09-23T16:06:01.183Z,35.56
2022-09-23T16:08:32.935Z,35.87
2022-09-23T16:11:01.389Z,36.36
2022-09-23T16:13:31.760Z,36.47
2022-09-23T16:15:59.626Z,36.82
2022-09-23T16:18:27.591Z,37.20
2022-09-23T16:20:55.963Z,37.88
2022-09-23T16:23:34.805Z,38.39
2022-09-23T16:26:15.580Z,38.20
2022-09-23T16:28:44.519Z,37.96
2022-09-23T16:31:16.299Z,38.11
2022-09-23T16:33:48.971Z,38.30
2022-09-23T16:36:27.501Z,38.59
2022-09-23T16:38:59.055Z,39.00
2022-09-23T16:41:34.403Z,39.17
2022-09-23T16:44:04.902Z,39.53
2022-09-23T16:46:34.628Z,39.93
2022-09-23T16:49:03.037Z,40.27
2022-09-23T16:51:38.639Z,40.60
2022-09-23T16:54:11.876Z,40.88
2022-09-23T16:56:45.379Z,41.14
2022-09-23T16:59:15.548Z,41.14
2022-09-23T17:02:02.516Z,40.99
2022-09-23T17:04:32.177Z,41.15
2022-09-23T17:07:00.158Z,41.50
2022-09-23T17:09:30.294Z,41.76
2022-09-23T17:12:12.258Z,42.17
2022-09-23T17:14:41.788Z,42.62
2022-09-23T17:17:10.486Z,42.93
2022-09-23T17:19:41.527Z,43.34
2022-09-23T17:22:10.067Z,43.85
2022-09-23T17:24:38.323Z,44.23
2022-09-23T17:27:06.601Z,44.59
2022-09-23T17:29:34.459Z,44.99
2022-09-23T17:32:05.108Z,45.38
2022-09-23T17:34:33.535Z,45.74
2022-09-23T17:37:02.636Z,46.04
2022-09-23T17:39:31.723Z,46.48
2022-09-23T17:41:59.587Z,46.90
2022-09-23T17:44:28.808Z,47.15
2022-09-23T17:46:58.241Z,47.51
2022-09-23T17:49:25.955Z,48.06
2022-09-23T17:51:53.992Z,48.18
2022-09-23T17:54:22.311Z,48.66
2022-09-23T17:56:50.587Z,49.09
2022-09-23T17:59:18.704Z,49.64
2022-09-23T18:01:46.912Z,49.93
2022-09-23T18:04:14.734Z,50.19
2022-09-23T18:06:45.279Z,50.52
2022-09-23T18:09:17.302Z,50.91
2022-09-23T18:11:46.594Z,51.09
2022-09-23T18:14:20.520Z,51.36
2022-09-23T18:16:54.395Z,51.55
2022-09-23T18:19:24.726Z,51.91
2022-09-23T18:21:56.657Z,52.08
2022-09-23T18:24:32.480Z,52.18
2022-09-23T18:27:02.232Z,52.41
2022-09-23T18:29:30.752Z,52.66
2022-09-23T18:31:59.505Z,52.97
2022-09-23T18:34:28.902Z,53.28
2022-09-23T18:36:57.531Z,53.52
2022-09-23T18:39:25.581Z,53.69
2022-09-23T18:41:55.694Z,53.88
2022-09-23T18:44:26.660Z,54.10
2022-09-23T18:46:54.873Z,54.43
2022-09-23T18:49:41.393Z,54.53
2022-09-23T18:52:12.004Z,54.84
2022-09-23T18:54:40.032Z,55.14
2022-09-23T18:57:09.111Z,55.37
2022-09-23T18:59:40.170Z,55.54
2022-09-23T19:02:08.750Z,56.08
2022-09-23T19:04:36.979Z,56.10
2022-09-23T19:07:06.976Z,56.28
2022-09-23T19:09:35.722Z,56.87
2022-09-23T19:12:03.728Z,57.43
2022-09-23T19:14:31.932Z,57.51
2022-09-23T19:17:00.256Z,57.99
2022-09-23T19:19:29.637Z,57.89
2022-09-23T19:21:57.707Z,58.00
2022-09-23T19:24:25.442Z,58.32
2022-09-23T19:26:54.745Z,58.43
2022-09-23T19:29:23.423Z,58.30
2022-09-23T19:31:51.708Z,58.44
2022-09-23T19:34:29.216Z,58.48
2022-09-23T19:36:58.046Z,58.65
2022-09-23T19:39:30.858Z,58.73
2022-09-23T19:41:59.316Z,58.88
2022-09-23T19:44:28.263Z,58.93
2022-09-23T19:46:57.381Z,59.14
2022-09-23T19:49:26.878Z,59.17
2022-09-23T19:51:56.084Z,59.17
2022-09-23T19:54:27.544Z,59.70
2022-09-23T19:56:58.021Z,59.82
2022-09-23T19:59:26.440Z,60.24
2022-09-23T20:01:54.893Z,60.26
2022-09-23T20:04:23.213Z,60.41
2022-09-23T20:06:51.725Z,60.48
2022-09-23T20:09:20.431Z,60.80
2022-09-23T20:11:49.085Z,60.78
2022-09-23T20:14:20.228Z,61.09
2022-09-23T20:16:48.628Z,61.43
2022-09-23T20:19:16.632Z,61.60
2022-09-23T20:21:45.067Z,61.75
2022-09-23T20:24:13.346Z,61.88
2022-09-23T20:27:01.212Z,62.20
2022-09-23T20:29:29.770Z,62.27
2022-09-23T20:31:58.727Z,62.69
2022-09-23T20:34:32.337Z,62.78
2022-09-23T20:37:01.839Z,62.87
2022-09-23T20:39:30.020Z,63.00
2022-09-23T20:41:59.063Z,63.28
2022-09-23T20:44:27.508Z,63.29
2022-09-23T20:46:56.755Z,63.50
2022-09-23T20:49:24.695Z,63.68
2022-09-23T20:51:55.978Z,63.82
2022-09-23T20:54:24.986Z,63.93
2022-09-23T20:56:53.733Z,64.20
2022-09-23T20:59:23.041Z,64.59
2022-09-23T21:01:55.708Z,64.78
2022-09-23T21:04:25.431Z,64.93
2022-09-23T21:06:54.154Z,65.06
2022-09-23T21:09:33.723Z,65.40
2022-09-23T21:12:02.149Z,65.64
2022-09-23T21:14:32.892Z,65.73
2022-09-23T21:17:02.802Z,65.83
2022-09-23T21:19:31.474Z,65.86
2022-09-23T21:21:59.479Z,65.88
2022-09-23T21:27:24.014Z,66.45
2022-09-23T21:29:52.539Z,66.46
2022-09-23T21:32:21.819Z,66.82
2022-09-23T21:34:50.456Z,66.95
2022-09-23T21:37:18.859Z,67.03
2022-09-23T21:40:07.156Z,67.18
2022-09-23T21:42:35.824Z,67.61
2022-09-23T21:45:05.152Z,67.71
2022-09-23T21:47:32.960Z,67.60
2022-09-23T21:50:02.915Z,67.89
2022-09-23T21:52:31.536Z,67.91
2022-09-23T21:55:00.110Z,67.94
2022-09-23T21:57:31.802Z,68.13
2022-09-23T22:00:09.866Z,68.36
2022-09-23T22:02:40.597Z,68.35
2022-09-23T22:05:11.844Z,68.51
2022-09-23T22:07:42.478Z,68.57
2022-09-23T22:10:13.460Z,68.86
2022-09-23T22:12:41.685Z,68.91
2022-09-23T22:15:10.939Z,68.84
2022-09-23T22:17:39.149Z,69.23
2022-09-23T22:20:08.194Z,69.15
2022-09-23T22:22:37.280Z,69.45
2022-09-23T22:25:06.169Z,69.32
2022-09-23T22:27:54.923Z,69.59
2022-09-23T22:30:41.537Z,69.42
2022-09-23T22:33:15.994Z,69.74
2022-09-23T22:35:43.988Z,69.89
2022-09-23T22:38:11.926Z,69.77
2022-09-23T22:40:43.913Z,70.02
2022-09-23T22:43:12.205Z,70.18
2022-09-23T22:45:48.470Z,70.28
2022-09-23T22:48:16.614Z,70.56
2022-09-23T22:50:45.713Z,70.65
2022-09-23T22:53:14.264Z,70.74
2022-09-23T22:55:45.278Z,70.78
2022-09-23T22:58:31.117Z,71.05
2022-09-23T23:01:00.433Z,71.06
2022-09-23T23:03:34.467Z,71.45
2022-09-23T23:06:04.419Z,71.46
2022-09-23T23:08:33.309Z,71.75
2022-09-23T23:11:11.618Z,71.90
2022-09-23T23:13:41.930Z,72.00
2022-09-23T23:16:13.638Z,72.21
2022-09-23T23:18:44.060Z,72.46
2022-09-23T23:21:19.782Z,72.41
2022-09-23T23:23:50.566Z,72.70
2022-09-23T23:26:29.304Z,72.71
2022-09-23T23:29:05.881Z,72.92
2022-09-23T23:31:38.110Z,72.99
2022-09-23T23:34:11.036Z,73.15
2022-09-23T23:36:40.071Z,73.32
2022-09-23T23:39:08.527Z,73.18
2022-09-23T23:41:42.959Z,73.54
2022-09-23T23:44:18.390Z,73.57
2022-09-23T23:46:49.460Z,73.76
2022-09-23T23:49:17.972Z,73.84
2022-09-23T23:51:46.621Z,74.01
2022-09-23T23:54:15.570Z,74.11
2022-09-23T23:56:44.363Z,74.47
2022-09-23T23:59:20.686Z,74.42
